sensor_id;sensor_type;location;lat;lon;timestamp;temperature;humidity
7970;DHT22;4030;52.362;9.206;2023-08-20T00:00:18;24.80;93.60
7970;DHT22;4030;52.362;9.206;2023-08-20T00:02:46;24.80;93.60
7970;DHT22;4030;52.362;9.206;2023-08-20T00:05:13;24.70;93.60
7970;DHT22;4030;52.362;9.206;2023-08-20T00:07:39;24.70;93.60
7970;DHT22;4030;52.362;9.206;2023-08-20T00:10:06;24.70;93.60
7970;DHT22;4030;52.362;9.206;2023-08-20T00:12:32;24.70;93.60
7970;DHT22;4030;52.362;9.206;2023-08-20T00:15:00;24.70;94.00
7970;DHT22;4030;52.362;9.206;2023-08-20T00:17:35;24.60;93.50
7970;DHT22;4030;52.362;9.206;2023-08-20T00:20:05;24.70;93.60
7970;DHT22;4030;52.362;9.206;2023-08-20T00:22:41;24.60;93.50
7970;DHT22;4030;52.362;9.206;2023-08-20T00:25:08;24.60;93.60
7970;DHT22;4030;52.362;9.206;2023-08-20T00:27:34;24.60;93.50
7970;DHT22;4030;52.362;9.206;2023-08-20T00:30:00;24.60;93.50
7970;DHT22;4030;52.362;9.206;2023-08-20T00:32:26;24.50;93.50
7970;DHT22;4030;52.362;9.206;2023-08-20T00:34:52;24.50;93.50
7970;DHT22;4030;52.362;9.206;2023-08-20T00:37:17;24.60;93.50
7970;DHT22;4030;52.362;9.206;2023-08-20T00:39:43;24.50;93.50
7970;DHT22;4030;52.362;9.206;2023-08-20T00:42:09;24.60;93.60
7970;DHT22;4030;52.362;9.206;2023-08-20T00:44:35;24.40;93.40
7970;DHT22;4030;52.362;9.206;2023-08-20T00:47:02;24.30;93.40
7970;DHT22;4030;52.362;9.206;2023-08-20T00:49:29;24.40;93.40
7970;DHT22;4030;52.362;9.206;2023-08-20T00:51:55;24.40;93.40
7970;DHT22;4030;52.362;9.206;2023-08-20T00:54:22;24.40;93.40
7970;DHT22;4030;52.362;9.206;2023-08-20T00:56:49;24.40;93.40
7970;DHT22;4030;52.362;9.206;2023-08-20T00:59:16;24.30;93.30
7970;DHT22;4030;52.362;9.206;2023-08-20T01:01:42;24.40;93.30
7970;DHT22;4030;52.362;9.206;2023-08-20T01:04:08;24.20;93.20
7970;DHT22;4030;52.362;9.206;2023-08-20T01:12:06;24.20;93.20
7970;DHT22;4030;52.362;9.206;2023-08-20T01:14:32;24.20;93.20
7970;DHT22;4030;52.362;9.206;2023-08-20T01:16:58;24.20;93.10
7970;DHT22;4030;52.362;9.206;2023-08-20T01:19:23;24.10;93.10
7970;DHT22;4030;52.362;9.206;2023-08-20T01:22:05;24.10;93.10
7970;DHT22;4030;52.362;9.206;2023-08-20T01:25:23;24.00;93.00
7970;DHT22;4030;52.362;9.206;2023-08-20T01:30:24;24.10;93.00
7970;DHT22;4030;52.362;9.206;2023-08-20T01:32:53;24.00;93.00
7970;DHT22;4030;52.362;9.206;2023-08-20T01:35:19;24.00;93.00
7970;DHT22;4030;52.362;9.206;2023-08-20T01:37:45;23.90;92.90
7970;DHT22;4030;52.362;9.206;2023-08-20T01:40:11;23.90;92.90
7970;DHT22;4030;52.362;9.206;2023-08-20T01:42:38;23.80;92.90
7970;DHT22;4030;52.362;9.206;2023-08-20T01:45:05;23.80;92.90
7970;DHT22;4030;52.362;9.206;2023-08-20T01:47:32;23.80;92.90
7970;DHT22;4030;52.362;9.206;2023-08-20T01:49:58;23.70;92.90
7970;DHT22;4030;52.362;9.206;2023-08-20T01:52:24;23.70;92.90
7970;DHT22;4030;52.362;9.206;2023-08-20T01:54:51;23.70;93.00
7970;DHT22;4030;52.362;9.206;2023-08-20T01:57:17;23.70;93.00
7970;DHT22;4030;52.362;9.206;2023-08-20T01:59:43;23.60;93.00
7970;DHT22;4030;52.362;9.206;2023-08-20T02:02:08;23.60;93.00
7970;DHT22;4030;52.362;9.206;2023-08-20T02:04:34;23.60;93.00
7970;DHT22;4030;52.362;9.206;2023-08-20T02:07:00;23.50;92.90
7970;DHT22;4030;52.362;9.206;2023-08-20T02:09:26;23.60;92.90
7970;DHT22;4030;52.362;9.206;2023-08-20T02:11:52;23.50;92.80
7970;DHT22;4030;52.362;9.206;2023-08-20T02:14:18;23.50;92.80
7970;DHT22;4030;52.362;9.206;2023-08-20T02:16:44;23.50;92.80
7970;DHT22;4030;52.362;9.206;2023-08-20T02:19:11;23.40;92.80
7970;DHT22;4030;52.362;9.206;2023-08-20T02:21:38;23.40;92.80
7970;DHT22;4030;52.362;9.206;2023-08-20T02:24:04;23.40;92.80
7970;DHT22;4030;52.362;9.206;2023-08-20T02:26:30;23.40;92.80
7970;DHT22;4030;52.362;9.206;2023-08-20T02:28:56;23.30;92.70
7970;DHT22;4030;52.362;9.206;2023-08-20T02:31:21;23.30;92.70
7970;DHT22;4030;52.362;9.206;2023-08-20T02:33:47;23.30;92.70
7970;DHT22;4030;52.362;9.206;2023-08-20T02:36:13;23.30;92.70
7970;DHT22;4030;52.362;9.206;2023-08-20T02:38:38;23.30;92.70
7970;DHT22;4030;52.362;9.206;2023-08-20T02:41:04;23.30;92.70
7970;DHT22;4030;52.362;9.206;2023-08-20T02:43:30;23.30;92.70
7970;DHT22;4030;52.362;9.206;2023-08-20T02:45:56;23.20;92.70
7970;DHT22;4030;52.362;9.206;2023-08-20T02:48:22;23.20;92.80
7970;DHT22;4030;52.362;9.206;2023-08-20T02:50:53;23.10;92.70
7970;DHT22;4030;52.362;9.206;2023-08-20T02:53:19;23.10;92.70
7970;DHT22;4030;52.362;9.206;2023-08-20T02:55:45;23.10;92.60
7970;DHT22;4030;52.362;9.206;2023-08-20T02:58:11;23.10;92.60
7970;DHT22;4030;52.362;9.206;2023-08-20T03:00:37;23.10;92.60
7970;DHT22;4030;52.362;9.206;2023-08-20T03:03:03;23.00;92.50
7970;DHT22;4030;52.362;9.206;2023-08-20T03:05:32;23.00;92.50
7970;DHT22;4030;52.362;9.206;2023-08-20T03:07:58;23.00;92.50
7970;DHT22;4030;52.362;9.206;2023-08-20T03:10:24;23.00;92.50
7970;DHT22;4030;52.362;9.206;2023-08-20T03:12:49;22.90;92.50
7970;DHT22;4030;52.362;9.206;2023-08-20T03:15:15;22.90;92.50
7970;DHT22;4030;52.362;9.206;2023-08-20T03:17:41;22.90;92.50
7970;DHT22;4030;52.362;9.206;2023-08-20T03:20:07;22.90;92.60
7970;DHT22;4030;52.362;9.206;2023-08-20T03:22:35;22.80;92.50
7970;DHT22;4030;52.362;9.206;2023-08-20T03:25:01;22.80;92.50
7970;DHT22;4030;52.362;9.206;2023-08-20T03:27:27;22.80;92.50
7970;DHT22;4030;52.362;9.206;2023-08-20T03:29:53;22.80;92.50
7970;DHT22;4030;52.362;9.206;2023-08-20T03:32:19;22.70;92.50
7970;DHT22;4030;52.362;9.206;2023-08-20T03:34:44;22.70;92.40
7970;DHT22;4030;52.362;9.206;2023-08-20T03:37:10;22.70;92.40
7970;DHT22;4030;52.362;9.206;2023-08-20T03:39:37;22.60;92.40
7970;DHT22;4030;52.362;9.206;2023-08-20T03:42:03;22.70;92.50
7970;DHT22;4030;52.362;9.206;2023-08-20T03:44:28;22.60;92.40
7970;DHT22;4030;52.362;9.206;2023-08-20T03:46:55;22.60;92.40
7970;DHT22;4030;52.362;9.206;2023-08-20T03:49:21;22.60;92.40
7970;DHT22;4030;52.362;9.206;2023-08-20T03:51:47;22.60;92.40
7970;DHT22;4030;52.362;9.206;2023-08-20T03:54:13;22.60;92.40
7970;DHT22;4030;52.362;9.206;2023-08-20T03:56:39;22.50;92.40
7970;DHT22;4030;52.362;9.206;2023-08-20T03:59:05;22.50;92.40
7970;DHT22;4030;52.362;9.206;2023-08-20T04:01:30;22.50;92.40
7970;DHT22;4030;52.362;9.206;2023-08-20T04:03:56;22.50;92.40
7970;DHT22;4030;52.362;9.206;2023-08-20T04:06:22;22.50;92.40
7970;DHT22;4030;52.362;9.206;2023-08-20T04:08:48;22.50;92.40
7970;DHT22;4030;52.362;9.206;2023-08-20T04:11:14;22.50;92.40
7970;DHT22;4030;52.362;9.206;2023-08-20T04:13:40;22.50;92.40
7970;DHT22;4030;52.362;9.206;2023-08-20T04:16:08;22.40;92.30
7970;DHT22;4030;52.362;9.206;2023-08-20T04:18:34;22.40;92.30
7970;DHT22;4030;52.362;9.206;2023-08-20T04:21:00;22.40;92.30
7970;DHT22;4030;52.362;9.206;2023-08-20T04:23:25;22.50;92.40
7970;DHT22;4030;52.362;9.206;2023-08-20T04:25:51;22.40;92.30
7970;DHT22;4030;52.362;9.206;2023-08-20T04:28:17;22.40;92.30
7970;DHT22;4030;52.362;9.206;2023-08-20T04:30:43;22.40;92.30
7970;DHT22;4030;52.362;9.206;2023-08-20T04:33:09;22.40;92.30
7970;DHT22;4030;52.362;9.206;2023-08-20T04:35:35;22.30;92.30
7970;DHT22;4030;52.362;9.206;2023-08-20T04:38:01;22.30;92.40
7970;DHT22;4030;52.362;9.206;2023-08-20T04:40:27;22.30;92.30
7970;DHT22;4030;52.362;9.206;2023-08-20T04:42:53;22.30;92.30
7970;DHT22;4030;52.362;9.206;2023-08-20T04:45:19;22.30;92.30
7970;DHT22;4030;52.362;9.206;2023-08-20T04:47:48;22.30;92.30
7970;DHT22;4030;52.362;9.206;2023-08-20T04:50:13;22.30;92.20
7970;DHT22;4030;52.362;9.206;2023-08-20T04:52:40;22.30;92.20
7970;DHT22;4030;52.362;9.206;2023-08-20T04:55:06;22.30;92.20
7970;DHT22;4030;52.362;9.206;2023-08-20T04:57:32;22.30;92.20
7970;DHT22;4030;52.362;9.206;2023-08-20T04:59:59;22.30;92.20
7970;DHT22;4030;52.362;9.206;2023-08-20T05:02:24;22.20;92.10
7970;DHT22;4030;52.362;9.206;2023-08-20T05:04:50;22.30;92.10
7970;DHT22;4030;52.362;9.206;2023-08-20T05:07:16;22.30;92.10
7970;DHT22;4030;52.362;9.206;2023-08-20T05:09:42;22.30;92.10
7970;DHT22;4030;52.362;9.206;2023-08-20T05:12:08;22.30;92.10
7970;DHT22;4030;52.362;9.206;2023-08-20T05:14:33;22.30;92.10
7970;DHT22;4030;52.362;9.206;2023-08-20T05:16:59;22.30;92.40
7970;DHT22;4030;52.362;9.206;2023-08-20T05:19:25;22.30;92.00
7970;DHT22;4030;52.362;9.206;2023-08-20T05:21:51;22.30;92.00
7970;DHT22;4030;52.362;9.206;2023-08-20T05:24:21;22.30;92.00
7970;DHT22;4030;52.362;9.206;2023-08-20T05:26:49;22.30;92.00
7970;DHT22;4030;52.362;9.206;2023-08-20T05:29:28;22.30;92.00
7970;DHT22;4030;52.362;9.206;2023-08-20T05:31:54;22.30;91.90
7970;DHT22;4030;52.362;9.206;2023-08-20T05:34:20;22.30;91.90
7970;DHT22;4030;52.362;9.206;2023-08-20T05:36:45;22.30;91.90
7970;DHT22;4030;52.362;9.206;2023-08-20T05:39:11;22.30;91.90
7970;DHT22;4030;52.362;9.206;2023-08-20T05:41:37;22.30;91.90
7970;DHT22;4030;52.362;9.206;2023-08-20T05:44:02;22.30;91.90
7970;DHT22;4030;52.362;9.206;2023-08-20T05:46:28;22.40;91.90
7970;DHT22;4030;52.362;9.206;2023-08-20T05:48:54;22.40;91.80
7970;DHT22;4030;52.362;9.206;2023-08-20T05:51:20;22.40;91.80
7970;DHT22;4030;52.362;9.206;2023-08-20T05:53:45;22.40;91.70
7970;DHT22;4030;52.362;9.206;2023-08-20T05:56:11;22.40;91.80
7970;DHT22;4030;52.362;9.206;2023-08-20T05:58:37;22.40;91.80
7970;DHT22;4030;52.362;9.206;2023-08-20T06:01:02;22.50;91.80
7970;DHT22;4030;52.362;9.206;2023-08-20T06:03:28;22.50;91.80
7970;DHT22;4030;52.362;9.206;2023-08-20T06:05:54;22.50;91.70
7970;DHT22;4030;52.362;9.206;2023-08-20T06:08:20;22.60;91.70
7970;DHT22;4030;52.362;9.206;2023-08-20T06:10:46;22.60;91.70
7970;DHT22;4030;52.362;9.206;2023-08-20T06:13:12;22.60;91.70
7970;DHT22;4030;52.362;9.206;2023-08-20T06:15:37;22.70;91.70
7970;DHT22;4030;52.362;9.206;2023-08-20T06:18:03;22.70;91.60
7970;DHT22;4030;52.362;9.206;2023-08-20T06:20:29;22.80;91.60
7970;DHT22;4030;52.362;9.206;2023-08-20T06:22:55;22.80;91.60
7970;DHT22;4030;52.362;9.206;2023-08-20T06:25:20;22.90;91.60
7970;DHT22;4030;52.362;9.206;2023-08-20T06:27:46;22.90;91.60
7970;DHT22;4030;52.362;9.206;2023-08-20T06:30:12;22.90;91.50
7970;DHT22;4030;52.362;9.206;2023-08-20T06:32:38;23.00;91.50
7970;DHT22;4030;52.362;9.206;2023-08-20T06:35:04;23.00;91.50
7970;DHT22;4030;52.362;9.206;2023-08-20T06:37:30;23.10;91.50
7970;DHT22;4030;52.362;9.206;2023-08-20T06:39:55;23.10;91.40
7970;DHT22;4030;52.362;9.206;2023-08-20T06:42:21;23.10;91.40
7970;DHT22;4030;52.362;9.206;2023-08-20T06:44:47;23.30;91.50
7970;DHT22;4030;52.362;9.206;2023-08-20T06:47:12;23.30;91.50
7970;DHT22;4030;52.362;9.206;2023-08-20T06:49:40;23.40;91.50
7970;DHT22;4030;52.362;9.206;2023-08-20T06:52:06;23.40;91.50
7970;DHT22;4030;52.362;9.206;2023-08-20T06:54:31;23.60;91.50
7970;DHT22;4030;52.362;9.206;2023-08-20T06:56:57;23.60;91.50
7970;DHT22;4030;52.362;9.206;2023-08-20T06:59:23;23.60;91.40
7970;DHT22;4030;52.362;9.206;2023-08-20T07:01:49;23.70;91.40
7970;DHT22;4030;52.362;9.206;2023-08-20T07:04:14;23.80;91.40
7970;DHT22;4030;52.362;9.206;2023-08-20T07:06:40;23.80;91.30
7970;DHT22;4030;52.362;9.206;2023-08-20T07:09:07;24.00;91.40
7970;DHT22;4030;52.362;9.206;2023-08-20T07:11:32;24.00;91.30
7970;DHT22;4030;52.362;9.206;2023-08-20T07:13:58;24.00;91.30
7970;DHT22;4030;52.362;9.206;2023-08-20T07:16:24;24.20;91.40
7970;DHT22;4030;52.362;9.206;2023-08-20T07:18:49;24.30;91.40
7970;DHT22;4030;52.362;9.206;2023-08-20T07:21:15;24.30;91.30
7970;DHT22;4030;52.362;9.206;2023-08-20T07:23:41;24.40;91.20
7970;DHT22;4030;52.362;9.206;2023-08-20T07:26:09;24.60;91.20
7970;DHT22;4030;52.362;9.206;2023-08-20T07:28:36;24.60;91.10
7970;DHT22;4030;52.362;9.206;2023-08-20T07:31:20;24.60;91.00
7970;DHT22;4030;52.362;9.206;2023-08-20T07:33:47;24.80;91.00
7970;DHT22;4030;52.362;9.206;2023-08-20T07:36:13;24.90;90.90
7970;DHT22;4030;52.362;9.206;2023-08-20T07:38:40;25.00;90.80
7970;DHT22;4030;52.362;9.206;2023-08-20T07:41:08;25.10;90.80
7970;DHT22;4030;52.362;9.206;2023-08-20T07:43:35;25.20;90.70
7970;DHT22;4030;52.362;9.206;2023-08-20T07:46:02;25.30;91.00
7970;DHT22;4030;52.362;9.206;2023-08-20T07:48:28;25.40;90.50
7970;DHT22;4030;52.362;9.206;2023-08-20T07:50:54;25.50;90.40
7970;DHT22;4030;52.362;9.206;2023-08-20T07:53:19;25.50;90.30
7970;DHT22;4030;52.362;9.206;2023-08-20T07:55:45;25.70;90.30
7970;DHT22;4030;52.362;9.206;2023-08-20T07:58:11;25.80;90.20
7970;DHT22;4030;52.362;9.206;2023-08-20T08:00:36;25.80;90.10
7970;DHT22;4030;52.362;9.206;2023-08-20T08:03:02;26.00;90.10
7970;DHT22;4030;52.362;9.206;2023-08-20T08:05:28;26.10;90.00
7970;DHT22;4030;52.362;9.206;2023-08-20T08:07:54;26.20;89.70
7970;DHT22;4030;52.362;9.206;2023-08-20T08:10:20;26.30;89.50
7970;DHT22;4030;52.362;9.206;2023-08-20T08:12:46;26.40;89.20
7970;DHT22;4030;52.362;9.206;2023-08-20T08:15:11;26.50;89.00
7970;DHT22;4030;52.362;9.206;2023-08-20T08:17:38;26.60;88.70
7970;DHT22;4030;52.362;9.206;2023-08-20T08:20:04;26.70;88.60
7970;DHT22;4030;52.362;9.206;2023-08-20T08:22:30;26.90;88.50
7970;DHT22;4030;52.362;9.206;2023-08-20T08:24:56;27.00;88.20
7970;DHT22;4030;52.362;9.206;2023-08-20T08:27:22;27.10;88.00
7970;DHT22;4030;52.362;9.206;2023-08-20T08:29:47;27.20;87.80
7970;DHT22;4030;52.362;9.206;2023-08-20T08:32:13;27.30;87.70
7970;DHT22;4030;52.362;9.206;2023-08-20T08:34:39;27.40;87.40
7970;DHT22;4030;52.362;9.206;2023-08-20T08:37:04;27.50;87.20
7970;DHT22;4030;52.362;9.206;2023-08-20T08:39:30;27.70;87.00
7970;DHT22;4030;52.362;9.206;2023-08-20T08:42:02;27.80;86.60
7970;DHT22;4030;52.362;9.206;2023-08-20T08:44:36;27.90;86.30
7970;DHT22;4030;52.362;9.206;2023-08-20T08:47:02;28.00;85.90
7970;DHT22;4030;52.362;9.206;2023-08-20T08:49:32;28.20;85.70
7970;DHT22;4030;52.362;9.206;2023-08-20T08:51:58;28.20;85.30
7970;DHT22;4030;52.362;9.206;2023-08-20T08:54:26;28.40;85.00
7970;DHT22;4030;52.362;9.206;2023-08-20T08:56:52;28.50;84.60
7970;DHT22;4030;52.362;9.206;2023-08-20T08:59:19;28.60;84.30
7970;DHT22;4030;52.362;9.206;2023-08-20T09:01:45;28.80;83.90
7970;DHT22;4030;52.362;9.206;2023-08-20T09:04:12;28.80;83.40
7970;DHT22;4030;52.362;9.206;2023-08-20T09:06:45;29.00;83.20
7970;DHT22;4030;52.362;9.206;2023-08-20T09:09:12;29.10;82.80
7970;DHT22;4030;52.362;9.206;2023-08-20T09:11:38;29.30;82.40
7970;DHT22;4030;52.362;9.206;2023-08-20T09:14:04;29.40;82.00
7970;DHT22;4030;52.362;9.206;2023-08-20T09:16:30;29.50;81.60
7970;DHT22;4030;52.362;9.206;2023-08-20T09:18:59;29.60;81.40
7970;DHT22;4030;52.362;9.206;2023-08-20T09:21:28;29.80;81.20
7970;DHT22;4030;52.362;9.206;2023-08-20T09:23:57;29.90;80.90
7970;DHT22;4030;52.362;9.206;2023-08-20T09:26:23;30.00;80.60
7970;DHT22;4030;52.362;9.206;2023-08-20T09:28:49;30.20;80.40
7970;DHT22;4030;52.362;9.206;2023-08-20T09:31:15;30.30;80.10
7970;DHT22;4030;52.362;9.206;2023-08-20T09:33:54;30.40;79.10
7970;DHT22;4030;52.362;9.206;2023-08-20T09:36:33;30.40;75.70
7970;DHT22;4030;52.362;9.206;2023-08-20T09:39:00;30.30;75.40
7970;DHT22;4030;52.362;9.206;2023-08-20T09:41:26;30.30;74.50
7970;DHT22;4030;52.362;9.206;2023-08-20T09:43:56;30.30;74.00
7970;DHT22;4030;52.362;9.206;2023-08-20T09:46:24;30.30;73.70
7970;DHT22;4030;52.362;9.206;2023-08-20T09:48:55;30.30;72.80
7970;DHT22;4030;52.362;9.206;2023-08-20T09:51:27;30.30;73.00
7970;DHT22;4030;52.362;9.206;2023-08-20T09:54:28;30.40;73.00
7970;DHT22;4030;52.362;9.206;2023-08-20T09:56:58;30.40;70.70
7970;DHT22;4030;52.362;9.206;2023-08-20T09:59:24;30.50;70.50
7970;DHT22;4030;52.362;9.206;2023-08-20T10:01:51;30.50;69.60
7970;DHT22;4030;52.362;9.206;2023-08-20T10:04:19;30.60;70.30
7970;DHT22;4030;52.362;9.206;2023-08-20T10:06:46;30.70;70.40
7970;DHT22;4030;52.362;9.206;2023-08-20T10:09:12;30.70;70.30
7970;DHT22;4030;52.362;9.206;2023-08-20T10:11:39;30.70;70.30
7970;DHT22;4030;52.362;9.206;2023-08-20T10:14:05;30.70;69.70
7970;DHT22;4030;52.362;9.206;2023-08-20T10:16:33;30.80;69.90
7970;DHT22;4030;52.362;9.206;2023-08-20T10:19:03;30.90;70.20
7970;DHT22;4030;52.362;9.206;2023-08-20T10:21:29;31.00;68.90
7970;DHT22;4030;52.362;9.206;2023-08-20T10:23:54;31.10;68.00
7970;DHT22;4030;52.362;9.206;2023-08-20T10:26:20;31.20;68.40
7970;DHT22;4030;52.362;9.206;2023-08-20T10:28:47;31.30;68.50
7970;DHT22;4030;52.362;9.206;2023-08-20T10:31:15;31.40;68.20
7970;DHT22;4030;52.362;9.206;2023-08-20T10:36:20;31.60;68.30
7970;DHT22;4030;52.362;9.206;2023-08-20T10:38:49;31.80;68.10
7970;DHT22;4030;52.362;9.206;2023-08-20T10:41:15;31.90;67.80
7970;DHT22;4030;52.362;9.206;2023-08-20T10:43:48;32.00;66.30
7970;DHT22;4030;52.362;9.206;2023-08-20T10:46:15;32.10;66.20
7970;DHT22;4030;52.362;9.206;2023-08-20T10:48:47;31.90;65.30
7970;DHT22;4030;52.362;9.206;2023-08-20T10:51:18;31.60;64.50
7970;DHT22;4030;52.362;9.206;2023-08-20T10:54:08;31.40;64.90
7970;DHT22;4030;52.362;9.206;2023-08-20T10:56:39;31.30;64.60
7970;DHT22;4030;52.362;9.206;2023-08-20T10:59:30;31.50;64.90
7970;DHT22;4030;52.362;9.206;2023-08-20T11:01:57;31.80;65.10
7970;DHT22;4030;52.362;9.206;2023-08-20T11:04:27;31.90;64.50
7970;DHT22;4030;52.362;9.206;2023-08-20T11:06:57;32.20;62.00
7970;DHT22;4030;52.362;9.206;2023-08-20T11:09:28;32.30;60.90
7970;DHT22;4030;52.362;9.206;2023-08-20T11:11:55;32.50;61.00
7970;DHT22;4030;52.362;9.206;2023-08-20T11:14:22;32.70;61.00
7970;DHT22;4030;52.362;9.206;2023-08-20T11:16:48;32.80;61.60
7970;DHT22;4030;52.362;9.206;2023-08-20T11:19:18;32.70;61.70
7970;DHT22;4030;52.362;9.206;2023-08-20T11:21:45;32.60;61.20
7970;DHT22;4030;52.362;9.206;2023-08-20T11:24:12;32.40;61.60
7970;DHT22;4030;52.362;9.206;2023-08-20T11:26:41;32.20;61.20
7970;DHT22;4030;52.362;9.206;2023-08-20T11:29:08;31.90;61.90
7970;DHT22;4030;52.362;9.206;2023-08-20T11:31:38;31.80;62.40
7970;DHT22;4030;52.362;9.206;2023-08-20T11:34:05;31.70;62.40
7970;DHT22;4030;52.362;9.206;2023-08-20T11:36:32;31.50;61.80
7970;DHT22;4030;52.362;9.206;2023-08-20T11:38:57;31.40;61.90
7970;DHT22;4030;52.362;9.206;2023-08-20T11:41:24;31.30;60.40
7970;DHT22;4030;52.362;9.206;2023-08-20T11:43:52;31.20;60.90
7970;DHT22;4030;52.362;9.206;2023-08-20T11:46:19;31.10;60.90
7970;DHT22;4030;52.362;9.206;2023-08-20T11:51:57;31.00;61.90
7970;DHT22;4030;52.362;9.206;2023-08-20T11:54:22;31.20;62.10
7970;DHT22;4030;52.362;9.206;2023-08-20T11:56:52;31.20;61.70
7970;DHT22;4030;52.362;9.206;2023-08-20T11:59:19;31.40;61.40
7970;DHT22;4030;52.362;9.206;2023-08-20T12:01:57;31.60;61.50
7970;DHT22;4030;52.362;9.206;2023-08-20T12:04:26;31.90;61.80
7970;DHT22;4030;52.362;9.206;2023-08-20T12:07:13;32.10;60.30
7970;DHT22;4030;52.362;9.206;2023-08-20T12:09:40;32.10;58.40
7970;DHT22;4030;52.362;9.206;2023-08-20T12:12:07;32.00;58.70
7970;DHT22;4030;52.362;9.206;2023-08-20T12:14:34;32.10;59.30
7970;DHT22;4030;52.362;9.206;2023-08-20T12:17:00;32.10;61.20
7970;DHT22;4030;52.362;9.206;2023-08-20T12:19:26;32.20;62.10
7970;DHT22;4030;52.362;9.206;2023-08-20T12:21:52;32.40;63.00
7970;DHT22;4030;52.362;9.206;2023-08-20T12:24:18;32.70;61.70
7970;DHT22;4030;52.362;9.206;2023-08-20T12:26:46;33.00;60.90
7970;DHT22;4030;52.362;9.206;2023-08-20T12:29:12;33.30;59.50
7970;DHT22;4030;52.362;9.206;2023-08-20T12:31:38;33.50;59.80
7970;DHT22;4030;52.362;9.206;2023-08-20T12:34:05;33.60;59.80
7970;DHT22;4030;52.362;9.206;2023-08-20T12:36:30;33.60;58.50
7970;DHT22;4030;52.362;9.206;2023-08-20T12:38:56;33.50;57.40
7970;DHT22;4030;52.362;9.206;2023-08-20T12:41:22;33.20;57.50
7970;DHT22;4030;52.362;9.206;2023-08-20T12:43:48;32.90;58.00
7970;DHT22;4030;52.362;9.206;2023-08-20T12:46:14;32.70;58.40
7970;DHT22;4030;52.362;9.206;2023-08-20T12:48:40;32.50;58.90
7970;DHT22;4030;52.362;9.206;2023-08-20T12:51:06;32.30;59.10
7970;DHT22;4030;52.362;9.206;2023-08-20T12:53:31;32.20;59.70
7970;DHT22;4030;52.362;9.206;2023-08-20T12:55:57;32.00;59.30
7970;DHT22;4030;52.362;9.206;2023-08-20T12:58:23;32.10;59.30
7970;DHT22;4030;52.362;9.206;2023-08-20T13:00:50;32.40;59.20
7970;DHT22;4030;52.362;9.206;2023-08-20T13:03:17;33.20;59.80
7970;DHT22;4030;52.362;9.206;2023-08-20T13:05:43;32.60;59.60
7970;DHT22;4030;52.362;9.206;2023-08-20T13:08:10;32.60;59.90
7970;DHT22;4030;52.362;9.206;2023-08-20T13:10:39;32.80;59.60
7970;DHT22;4030;52.362;9.206;2023-08-20T13:13:09;32.80;59.70
7970;DHT22;4030;52.362;9.206;2023-08-20T13:15:36;32.70;59.90
7970;DHT22;4030;52.362;9.206;2023-08-20T13:18:03;32.90;59.70
7970;DHT22;4030;52.362;9.206;2023-08-20T13:20:29;33.00;57.50
7970;DHT22;4030;52.362;9.206;2023-08-20T13:22:55;33.10;56.50
7970;DHT22;4030;52.362;9.206;2023-08-20T13:25:21;33.10;54.70
7970;DHT22;4030;52.362;9.206;2023-08-20T13:27:47;33.30;54.60
7970;DHT22;4030;52.362;9.206;2023-08-20T13:30:13;33.50;54.90
7970;DHT22;4030;52.362;9.206;2023-08-20T13:32:39;33.80;55.80
7970;DHT22;4030;52.362;9.206;2023-08-20T13:35:05;34.00;53.90
7970;DHT22;4030;52.362;9.206;2023-08-20T13:37:31;34.20;52.30
7970;DHT22;4030;52.362;9.206;2023-08-20T13:39:58;34.40;51.90
7970;DHT22;4030;52.362;9.206;2023-08-20T13:42:24;34.70;51.40
7970;DHT22;4030;52.362;9.206;2023-08-20T13:44:50;34.80;51.10
7970;DHT22;4030;52.362;9.206;2023-08-20T13:47:16;34.70;50.80
7970;DHT22;4030;52.362;9.206;2023-08-20T13:49:41;34.40;50.30
7970;DHT22;4030;52.362;9.206;2023-08-20T13:52:07;34.00;50.60
7970;DHT22;4030;52.362;9.206;2023-08-20T13:54:35;34.00;52.50
7970;DHT22;4030;52.362;9.206;2023-08-20T13:57:01;33.90;53.50
7970;DHT22;4030;52.362;9.206;2023-08-20T13:59:29;33.80;54.80
7970;DHT22;4030;52.362;9.206;2023-08-20T14:01:55;33.70;55.50
7970;DHT22;4030;52.362;9.206;2023-08-20T14:04:20;33.90;56.00
7970;DHT22;4030;52.362;9.206;2023-08-20T14:06:46;34.20;55.10
7970;DHT22;4030;52.362;9.206;2023-08-20T14:09:12;34.30;55.00
7970;DHT22;4030;52.362;9.206;2023-08-20T14:11:38;34.20;55.20
7970;DHT22;4030;52.362;9.206;2023-08-20T14:14:04;33.80;55.30
7970;DHT22;4030;52.362;9.206;2023-08-20T14:16:30;33.60;55.20
7970;DHT22;4030;52.362;9.206;2023-08-20T14:18:55;33.80;54.80
7970;DHT22;4030;52.362;9.206;2023-08-20T14:21:21;34.40;54.50
7970;DHT22;4030;52.362;9.206;2023-08-20T14:23:47;35.20;53.50
7970;DHT22;4030;52.362;9.206;2023-08-20T14:26:12;35.80;52.50
7970;DHT22;4030;52.362;9.206;2023-08-20T14:28:38;36.20;51.30
7970;DHT22;4030;52.362;9.206;2023-08-20T14:31:04;36.70;50.10
7970;DHT22;4030;52.362;9.206;2023-08-20T14:33:33;37.00;49.20
7970;DHT22;4030;52.362;9.206;2023-08-20T14:35:59;37.20;48.50
7970;DHT22;4030;52.362;9.206;2023-08-20T14:38:25;37.10;48.50
7970;DHT22;4030;52.362;9.206;2023-08-20T14:40:51;37.00;49.40
7970;DHT22;4030;52.362;9.206;2023-08-20T14:43:16;36.70;49.30
7970;DHT22;4030;52.362;9.206;2023-08-20T14:45:42;36.30;48.70
7970;DHT22;4030;52.362;9.206;2023-08-20T14:48:08;36.10;49.50
7970;DHT22;4030;52.362;9.206;2023-08-20T14:50:33;35.70;49.50
7970;DHT22;4030;52.362;9.206;2023-08-20T14:53:00;35.50;49.90
7970;DHT22;4030;52.362;9.206;2023-08-20T14:55:26;35.20;50.30
7970;DHT22;4030;52.362;9.206;2023-08-20T14:57:52;35.10;51.00
7970;DHT22;4030;52.362;9.206;2023-08-20T15:00:18;34.90;51.20
7970;DHT22;4030;52.362;9.206;2023-08-20T15:02:44;34.80;50.50
7970;DHT22;4030;52.362;9.206;2023-08-20T15:05:11;34.70;51.00
7970;DHT22;4030;52.362;9.206;2023-08-20T15:07:37;34.50;51.30
7970;DHT22;4030;52.362;9.206;2023-08-20T15:10:03;34.40;50.90
7970;DHT22;4030;52.362;9.206;2023-08-20T15:12:33;34.30;51.40
7970;DHT22;4030;52.362;9.206;2023-08-20T15:14:59;34.10;51.70
7970;DHT22;4030;52.362;9.206;2023-08-20T15:17:26;33.90;52.20
7970;DHT22;4030;52.362;9.206;2023-08-20T15:19:52;33.60;51.60
7970;DHT22;4030;52.362;9.206;2023-08-20T15:22:18;33.40;52.00
7970;DHT22;4030;52.362;9.206;2023-08-20T15:24:44;33.40;52.50
7970;DHT22;4030;52.362;9.206;2023-08-20T15:27:09;33.20;52.90
7970;DHT22;4030;52.362;9.206;2023-08-20T15:29:35;33.10;52.60
7970;DHT22;4030;52.362;9.206;2023-08-20T15:32:01;33.00;52.70
7970;DHT22;4030;52.362;9.206;2023-08-20T15:34:26;32.80;53.00
7970;DHT22;4030;52.362;9.206;2023-08-20T15:36:52;32.60;53.40
7970;DHT22;4030;52.362;9.206;2023-08-20T15:39:18;32.50;54.30
7970;DHT22;4030;52.362;9.206;2023-08-20T15:41:44;32.30;54.50
7970;DHT22;4030;52.362;9.206;2023-08-20T15:44:12;32.20;54.60
7970;DHT22;4030;52.362;9.206;2023-08-20T15:46:38;32.10;53.70
7970;DHT22;4030;52.362;9.206;2023-08-20T15:49:04;32.00;54.00
7970;DHT22;4030;52.362;9.206;2023-08-20T15:51:30;31.90;55.90
7970;DHT22;4030;52.362;9.206;2023-08-20T15:53:56;31.80;56.30
7970;DHT22;4030;52.362;9.206;2023-08-20T15:56:22;31.70;57.00
7970;DHT22;4030;52.362;9.206;2023-08-20T15:58:48;31.60;57.70
7970;DHT22;4030;52.362;9.206;2023-08-20T16:01:14;31.50;58.20
7970;DHT22;4030;52.362;9.206;2023-08-20T16:03:40;31.40;58.30
7970;DHT22;4030;52.362;9.206;2023-08-20T16:06:07;31.30;58.30
7970;DHT22;4030;52.362;9.206;2023-08-20T16:08:33;31.30;58.70
7970;DHT22;4030;52.362;9.206;2023-08-20T16:10:59;31.30;58.60
7970;DHT22;4030;52.362;9.206;2023-08-20T16:13:25;31.20;58.40